sensor_id;sensor_type;location;lat;lon;timestamp;P1;durP1;ratioP1;P2;durP2;ratioP2
8177;SDS011;4130;48.740;9.132;2023-07-13T00:02:22;0.90;;;0.90;;
8177;SDS011;4130;48.740;9.132;2023-07-13T00:04:49;1.10;;;1.00;;
8177;SDS011;4130;48.740;9.132;2023-07-13T00:07:18;1.10;;;1.00;;
8177;SDS011;4130;48.740;9.132;2023-07-13T00:09:45;0.65;;;0.65;;
8177;SDS011;4130;48.740;9.132;2023-07-13T00:12:22;1.15;;;1.05;;
8177;SDS011;4130;48.740;9.132;2023-07-13T00:14:51;1.48;;;0.90;;
8177;SDS011;4130;48.740;9.132;2023-07-13T00:17:17;1.00;;;1.00;;
8177;SDS011;4130;48.740;9.132;2023-07-13T00:19:44;0.82;;;0.80;;
8177;SDS011;4130;48.740;9.132;2023-07-13T00:22:11;0.98;;;0.90;;
8177;SDS011;4130;48.740;9.132;2023-07-13T00:24:39;3.80;;;1.20;;
8177;SDS011;4130;48.740;9.132;2023-07-13T00:27:07;0.90;;;0.90;;
8177;SDS011;4130;48.740;9.132;2023-07-13T00:29:34;2.22;;;1.00;;
8177;SDS011;4130;48.740;9.132;2023-07-13T00:32:01;2.00;;;0.70;;
8177;SDS011;4130;48.740;9.132;2023-07-13T00:34:28;2.50;;;1.02;;
8177;SDS011;4130;48.740;9.132;2023-07-13T00:36:55;1.25;;;1.00;;
8177;SDS011;4130;48.740;9.132;2023-07-13T00:39:22;1.00;;;0.90;;
8177;SDS011;4130;48.740;9.132;2023-07-13T00:41:51;1.92;;;1.17;;
8177;SDS011;4130;48.740;9.132;2023-07-13T00:44:18;0.75;;;0.75;;
8177;SDS011;4130;48.740;9.132;2023-07-13T00:46:48;0.82;;;0.77;;
8177;SDS011;4130;48.740;9.132;2023-07-13T00:49:17;0.90;;;0.90;;
8177;SDS011;4130;48.740;9.132;2023-07-13T00:51:47;0.90;;;0.90;;
8177;SDS011;4130;48.740;9.132;2023-07-13T00:54:19;2.15;;;1.00;;
8177;SDS011;4130;48.740;9.132;2023-07-13T00:56:52;0.75;;;0.75;;
8177;SDS011;4130;48.740;9.132;2023-07-13T00:59:21;0.90;;;0.90;;
8177;SDS011;4130;48.740;9.132;2023-07-13T01:01:49;0.85;;;0.80;;
8177;SDS011;4130;48.740;9.132;2023-07-13T01:04:16;0.93;;;0.93;;
8177;SDS011;4130;48.740;9.132;2023-07-13T01:06:43;1.75;;;0.80;;
8177;SDS011;4130;48.740;9.132;2023-07-13T01:09:12;0.93;;;0.90;;
8177;SDS011;4130;48.740;9.132;2023-07-13T01:11:41;0.95;;;0.82;;
8177;SDS011;4130;48.740;9.132;2023-07-13T01:14:11;1.15;;;1.05;;
8177;SDS011;4130;48.740;9.132;2023-07-13T01:16:38;1.00;;;0.80;;
8177;SDS011;4130;48.740;9.132;2023-07-13T01:19:10;0.80;;;0.80;;
8177;SDS011;4130;48.740;9.132;2023-07-13T01:21:46;1.13;;;0.85;;
8177;SDS011;4130;48.740;9.132;2023-07-13T01:24:17;0.90;;;0.90;;
8177;SDS011;4130;48.740;9.132;2023-07-13T01:26:43;1.77;;;0.77;;
8177;SDS011;4130;48.740;9.132;2023-07-13T01:29:10;0.70;;;0.70;;
8177;SDS011;4130;48.740;9.132;2023-07-13T01:31:37;0.82;;;0.80;;
8177;SDS011;4130;48.740;9.132;2023-07-13T01:34:03;1.35;;;1.10;;
8177;SDS011;4130;48.740;9.132;2023-07-13T01:36:31;0.80;;;0.80;;
8177;SDS011;4130;48.740;9.132;2023-07-13T01:38:59;1.35;;;1.00;;
8177;SDS011;4130;48.740;9.132;2023-07-13T01:41:26;0.90;;;0.90;;
8177;SDS011;4130;48.740;9.132;2023-07-13T01:43:53;1.42;;;0.80;;
8177;SDS011;4130;48.740;9.132;2023-07-13T01:46:19;0.90;;;0.90;;
8177;SDS011;4130;48.740;9.132;2023-07-13T01:48:46;0.73;;;0.73;;
8177;SDS011;4130;48.740;9.132;2023-07-13T01:51:13;1.20;;;0.80;;
8177;SDS011;4130;48.740;9.132;2023-07-13T01:53:40;1.02;;;0.88;;
8177;SDS011;4130;48.740;9.132;2023-07-13T01:56:08;0.70;;;0.70;;
8177;SDS011;4130;48.740;9.132;2023-07-13T01:58:36;1.98;;;1.08;;
8177;SDS011;4130;48.740;9.132;2023-07-13T02:01:02;3.53;;;0.98;;
8177;SDS011;4130;48.740;9.132;2023-07-13T02:03:29;1.95;;;1.00;;
8177;SDS011;4130;48.740;9.132;2023-07-13T02:05:56;1.27;;;0.95;;
8177;SDS011;4130;48.740;9.132;2023-07-13T02:08:22;0.80;;;0.80;;
8177;SDS011;4130;48.740;9.132;2023-07-13T02:10:49;2.10;;;1.10;;
8177;SDS011;4130;48.740;9.132;2023-07-13T02:13:17;1.92;;;1.10;;
8177;SDS011;4130;48.740;9.132;2023-07-13T02:15:46;1.67;;;1.00;;
8177;SDS011;4130;48.740;9.132;2023-07-13T02:18:15;0.93;;;0.90;;
8177;SDS011;4130;48.740;9.132;2023-07-13T02:20:42;0.93;;;0.93;;
8177;SDS011;4130;48.740;9.132;2023-07-13T02:23:09;2.42;;;1.13;;
8177;SDS011;4130;48.740;9.132;2023-07-13T02:25:36;1.33;;;1.10;;
8177;SDS011;4130;48.740;9.132;2023-07-13T02:28:03;3.17;;;1.10;;
8177;SDS011;4130;48.740;9.132;2023-07-13T02:30:31;1.85;;;1.00;;
8177;SDS011;4130;48.740;9.132;2023-07-13T02:32:58;1.27;;;1.05;;
8177;SDS011;4130;48.740;9.132;2023-07-13T02:35:24;2.30;;;1.10;;
8177;SDS011;4130;48.740;9.132;2023-07-13T02:37:51;2.20;;;1.25;;
8177;SDS011;4130;48.740;9.132;2023-07-13T02:40:18;0.80;;;0.80;;
8177;SDS011;4130;48.740;9.132;2023-07-13T02:42:45;1.25;;;1.15;;
8177;SDS011;4130;48.740;9.132;2023-07-13T02:45:12;2.58;;;1.30;;
8177;SDS011;4130;48.740;9.132;2023-07-13T02:47:41;1.60;;;1.13;;
8177;SDS011;4130;48.740;9.132;2023-07-13T02:50:08;1.90;;;1.10;;
8177;SDS011;4130;48.740;9.132;2023-07-13T02:52:35;1.00;;;1.00;;
8177;SDS011;4130;48.740;9.132;2023-07-13T02:55:02;2.70;;;1.00;;
8177;SDS011;4130;48.740;9.132;2023-07-13T02:57:29;1.15;;;1.00;;
8177;SDS011;4130;48.740;9.132;2023-07-13T02:59:58;1.10;;;1.00;;
8177;SDS011;4130;48.740;9.132;2023-07-13T03:02:24;1.58;;;1.00;;
8177;SDS011;4130;48.740;9.132;2023-07-13T03:04:54;2.78;;;0.90;;
8177;SDS011;4130;48.740;9.132;2023-07-13T03:07:21;1.20;;;1.20;;
8177;SDS011;4130;48.740;9.132;2023-07-13T03:09:48;3.05;;;1.20;;
8177;SDS011;4130;48.740;9.132;2023-07-13T03:12:14;1.48;;;1.20;;
8177;SDS011;4130;48.740;9.132;2023-07-13T03:14:41;1.67;;;1.45;;
8177;SDS011;4130;48.740;9.132;2023-07-13T03:17:08;1.23;;;1.00;;
8177;SDS011;4130;48.740;9.132;2023-07-13T03:19:35;1.85;;;1.50;;
8177;SDS011;4130;48.740;9.132;2023-07-13T03:22:03;1.27;;;1.15;;
8177;SDS011;4130;48.740;9.132;2023-07-13T03:24:31;1.40;;;1.30;;
8177;SDS011;4130;48.740;9.132;2023-07-13T03:26:58;2.55;;;1.30;;
8177;SDS011;4130;48.740;9.132;2023-07-13T03:29:27;2.10;;;1.27;;
8177;SDS011;4130;48.740;9.132;2023-07-13T03:31:53;2.05;;;1.25;;
8177;SDS011;4130;48.740;9.132;2023-07-13T03:34:20;1.20;;;1.10;;
8177;SDS011;4130;48.740;9.132;2023-07-13T03:36:47;2.28;;;0.93;;
8177;SDS011;4130;48.740;9.132;2023-07-13T03:39:15;1.33;;;1.05;;
8177;SDS011;4130;48.740;9.132;2023-07-13T03:41:42;1.45;;;1.02;;
8177;SDS011;4130;48.740;9.132;2023-07-13T03:44:08;1.98;;;1.10;;
8177;SDS011;4130;48.740;9.132;2023-07-13T03:46:35;1.27;;;1.23;;
8177;SDS011;4130;48.740;9.132;2023-07-13T03:49:03;1.30;;;1.20;;
8177;SDS011;4130;48.740;9.132;2023-07-13T03:51:30;1.48;;;1.38;;
8177;SDS011;4130;48.740;9.132;2023-07-13T03:53:57;1.70;;;1.30;;
8177;SDS011;4130;48.740;9.132;2023-07-13T03:56:25;1.88;;;1.45;;
8177;SDS011;4130;48.740;9.132;2023-07-13T03:58:52;1.42;;;1.33;;
8177;SDS011;4130;48.740;9.132;2023-07-13T04:01:20;1.30;;;1.23;;
8177;SDS011;4130;48.740;9.132;2023-07-13T04:03:48;1.17;;;1.08;;
8177;SDS011;4130;48.740;9.132;2023-07-13T04:06:16;1.58;;;1.48;;
8177;SDS011;4130;48.740;9.132;2023-07-13T04:08:47;1.10;;;1.10;;
8177;SDS011;4130;48.740;9.132;2023-07-13T04:11:16;2.72;;;1.60;;
8177;SDS011;4130;48.740;9.132;2023-07-13T04:13:44;1.30;;;1.20;;
8177;SDS011;4130;48.740;9.132;2023-07-13T04:16:11;1.30;;;1.15;;
8177;SDS011;4130;48.740;9.132;2023-07-13T04:18:38;1.98;;;1.80;;
8177;SDS011;4130;48.740;9.132;2023-07-13T04:21:06;1.27;;;1.20;;
8177;SDS011;4130;48.740;9.132;2023-07-13T04:23:33;2.28;;;1.52;;
8177;SDS011;4130;48.740;9.132;2023-07-13T04:26:00;2.08;;;1.30;;
8177;SDS011;4130;48.740;9.132;2023-07-13T04:28:27;3.63;;;1.48;;
8177;SDS011;4130;48.740;9.132;2023-07-13T04:30:55;1.52;;;1.42;;
8177;SDS011;4130;48.740;9.132;2023-07-13T04:33:22;2.30;;;1.23;;
8177;SDS011;4130;48.740;9.132;2023-07-13T04:35:49;1.40;;;1.30;;
8177;SDS011;4130;48.740;9.132;2023-07-13T04:38:21;5.07;;;1.25;;
8177;SDS011;4130;48.740;9.132;2023-07-13T04:40:49;1.95;;;1.30;;
8177;SDS011;4130;48.740;9.132;2023-07-13T04:43:17;1.58;;;1.25;;
8177;SDS011;4130;48.740;9.132;2023-07-13T04:45:44;2.28;;;1.77;;
8177;SDS011;4130;48.740;9.132;2023-07-13T04:48:12;3.30;;;1.98;;
8177;SDS011;4130;48.740;9.132;2023-07-13T04:50:39;7.43;;;3.20;;
8177;SDS011;4130;48.740;9.132;2023-07-13T04:53:06;6.05;;;2.72;;
8177;SDS011;4130;48.740;9.132;2023-07-13T04:55:33;9.38;;;4.32;;
8177;SDS011;4130;48.740;9.132;2023-07-13T04:58:00;10.57;;;4.38;;
8177;SDS011;4130;48.740;9.132;2023-07-13T05:00:27;19.95;;;7.53;;
8177;SDS011;4130;48.740;9.132;2023-07-13T05:02:55;20.58;;;8.40;;
8177;SDS011;4130;48.740;9.132;2023-07-13T05:05:25;25.67;;;8.65;;
8177;SDS011;4130;48.740;9.132;2023-07-13T05:07:52;17.77;;;7.38;;
8177;SDS011;4130;48.740;9.132;2023-07-13T05:10:19;11.43;;;4.47;;
8177;SDS011;4130;48.740;9.132;2023-07-13T05:12:46;6.20;;;2.47;;
8177;SDS011;4130;48.740;9.132;2023-07-13T05:15:13;4.47;;;2.40;;
8177;SDS011;4130;48.740;9.132;2023-07-13T05:17:40;5.25;;;2.17;;
8177;SDS011;4130;48.740;9.132;2023-07-13T05:20:08;3.95;;;1.90;;
8177;SDS011;4130;48.740;9.132;2023-07-13T05:22:37;4.13;;;1.90;;
8177;SDS011;4130;48.740;9.132;2023-07-13T05:25:04;3.15;;;1.55;;
8177;SDS011;4130;48.740;9.132;2023-07-13T05:27:31;1.50;;;1.40;;
8177;SDS011;4130;48.740;9.132;2023-07-13T05:29:58;1.10;;;1.10;;
8177;SDS011;4130;48.740;9.132;2023-07-13T05:32:25;5.03;;;1.70;;
8177;SDS011;4130;48.740;9.132;2023-07-13T05:34:52;2.88;;;1.50;;
8177;SDS011;4130;48.740;9.132;2023-07-13T05:37:18;6.03;;;2.17;;
8177;SDS011;4130;48.740;9.132;2023-07-13T05:39:47;2.80;;;1.85;;
8177;SDS011;4130;48.740;9.132;2023-07-13T05:42:14;2.53;;;1.70;;
8177;SDS011;4130;48.740;9.132;2023-07-13T05:44:41;3.58;;;1.67;;
8177;SDS011;4130;48.740;9.132;2023-07-13T05:47:07;2.00;;;1.20;;
8177;SDS011;4130;48.740;9.132;2023-07-13T05:49:34;5.47;;;1.40;;
8177;SDS011;4130;48.740;9.132;2023-07-13T05:52:01;1.15;;;1.13;;
8177;SDS011;4130;48.740;9.132;2023-07-13T05:54:28;2.17;;;1.40;;
8177;SDS011;4130;48.740;9.132;2023-07-13T05:56:56;1.90;;;1.23;;
8177;SDS011;4130;48.740;9.132;2023-07-13T05:59:22;1.25;;;1.15;;
8177;SDS011;4130;48.740;9.132;2023-07-13T06:01:50;0.90;;;0.90;;
8177;SDS011;4130;48.740;9.132;2023-07-13T06:04:17;1.20;;;1.05;;
8177;SDS011;4130;48.740;9.132;2023-07-13T06:06:45;1.27;;;1.23;;
8177;SDS011;4130;48.740;9.132;2023-07-13T06:09:11;1.52;;;1.15;;
8177;SDS011;4130;48.740;9.132;2023-07-13T06:11:38;3.92;;;1.23;;
8177;SDS011;4130;48.740;9.132;2023-07-13T06:14:07;1.10;;;1.00;;
8177;SDS011;4130;48.740;9.132;2023-07-13T06:16:34;1.60;;;1.30;;
8177;SDS011;4130;48.740;9.132;2023-07-13T06:19:01;1.25;;;1.08;;
8177;SDS011;4130;48.740;9.132;2023-07-13T06:21:27;1.20;;;1.10;;
8177;SDS011;4130;48.740;9.132;2023-07-13T06:23:54;1.40;;;1.30;;
8177;SDS011;4130;48.740;9.132;2023-07-13T06:26:21;1.33;;;1.23;;
8177;SDS011;4130;48.740;9.132;2023-07-13T06:28:48;1.35;;;1.17;;
8177;SDS011;4130;48.740;9.132;2023-07-13T06:31:16;1.75;;;1.25;;
8177;SDS011;4130;48.740;9.132;2023-07-13T06:33:43;1.38;;;1.05;;
8177;SDS011;4130;48.740;9.132;2023-07-13T06:36:10;1.42;;;1.33;;
8177;SDS011;4130;48.740;9.132;2023-07-13T06:38:37;2.78;;;2.05;;
8177;SDS011;4130;48.740;9.132;2023-07-13T06:41:05;1.48;;;1.23;;
8177;SDS011;4130;48.740;9.132;2023-07-13T06:43:32;1.13;;;1.13;;
8177;SDS011;4130;48.740;9.132;2023-07-13T06:45:59;1.25;;;1.00;;
8177;SDS011;4130;48.740;9.132;2023-07-13T06:48:27;2.05;;;1.05;;
8177;SDS011;4130;48.740;9.132;2023-07-13T06:50:54;3.10;;;1.13;;
8177;SDS011;4130;48.740;9.132;2023-07-13T06:53:21;1.75;;;1.00;;
8177;SDS011;4130;48.740;9.132;2023-07-13T06:55:48;1.00;;;0.98;;
8177;SDS011;4130;48.740;9.132;2023-07-13T06:58:17;1.05;;;0.90;;
8177;SDS011;4130;48.740;9.132;2023-07-13T07:00:44;2.88;;;1.00;;
8177;SDS011;4130;48.740;9.132;2023-07-13T07:03:11;2.95;;;1.33;;
8177;SDS011;4130;48.740;9.132;2023-07-13T07:05:40;2.45;;;0.93;;
8177;SDS011;4130;48.740;9.132;2023-07-13T07:08:07;1.30;;;1.00;;
8177;SDS011;4130;48.740;9.132;2023-07-13T07:10:34;1.08;;;1.08;;
8177;SDS011;4130;48.740;9.132;2023-07-13T07:13:01;4.32;;;1.00;;
8177;SDS011;4130;48.740;9.132;2023-07-13T07:15:29;1.00;;;0.90;;
8177;SDS011;4130;48.740;9.132;2023-07-13T07:17:56;1.38;;;0.90;;
8177;SDS011;4130;48.740;9.132;2023-07-13T07:20:22;0.80;;;0.80;;
8177;SDS011;4130;48.740;9.132;2023-07-13T07:22:51;1.10;;;0.85;;
8177;SDS011;4130;48.740;9.132;2023-07-13T07:25:17;1.10;;;0.85;;
8177;SDS011;4130;48.740;9.132;2023-07-13T07:27:44;0.95;;;0.90;;
8177;SDS011;4130;48.740;9.132;2023-07-13T07:30:11;1.35;;;0.98;;
8177;SDS011;4130;48.740;9.132;2023-07-13T07:32:38;1.98;;;1.00;;
8177;SDS011;4130;48.740;9.132;2023-07-13T07:35:07;1.17;;;0.82;;
8177;SDS011;4130;48.740;9.132;2023-07-13T07:37:34;1.02;;;0.85;;
8177;SDS011;4130;48.740;9.132;2023-07-13T07:40:02;2.28;;;0.90;;
8177;SDS011;4130;48.740;9.132;2023-07-13T07:42:29;0.82;;;0.70;;
8177;SDS011;4130;48.740;9.132;2023-07-13T07:44:56;1.60;;;0.98;;
8177;SDS011;4130;48.740;9.132;2023-07-13T07:47:22;1.65;;;0.70;;
8177;SDS011;4130;48.740;9.132;2023-07-13T07:49:49;1.88;;;1.00;;
8177;SDS011;4130;48.740;9.132;2023-07-13T07:52:17;1.10;;;0.80;;
8177;SDS011;4130;48.740;9.132;2023-07-13T07:54:44;1.30;;;1.10;;
8177;SDS011;4130;48.740;9.132;2023-07-13T07:57:12;0.80;;;0.80;;
8177;SDS011;4130;48.740;9.132;2023-07-13T07:59:39;0.52;;;0.52;;
8177;SDS011;4130;48.740;9.132;2023-07-13T08:02:06;0.98;;;0.88;;
8177;SDS011;4130;48.740;9.132;2023-07-13T08:04:34;0.70;;;0.70;;
8177;SDS011;4130;48.740;9.132;2023-07-13T08:07:01;2.08;;;0.90;;
8177;SDS011;4130;48.740;9.132;2023-07-13T08:09:28;2.05;;;1.05;;
8177;SDS011;4130;48.740;9.132;2023-07-13T08:11:55;1.00;;;0.90;;
8177;SDS011;4130;48.740;9.132;2023-07-13T08:14:23;1.00;;;0.90;;
8177;SDS011;4130;48.740;9.132;2023-07-13T08:16:50;1.60;;;1.25;;
8177;SDS011;4130;48.740;9.132;2023-07-13T08:19:17;1.05;;;0.90;;
8177;SDS011;4130;48.740;9.132;2023-07-13T08:21:43;0.95;;;0.90;;
8177;SDS011;4130;48.740;9.132;2023-07-13T08:24:13;1.13;;;0.80;;
8177;SDS011;4130;48.740;9.132;2023-07-13T08:26:40;1.70;;;0.93;;
8177;SDS011;4130;48.740;9.132;2023-07-13T08:29:07;1.30;;;0.90;;
8177;SDS011;4130;48.740;9.132;2023-07-13T08:31:35;1.02;;;0.88;;
8177;SDS011;4130;48.740;9.132;2023-07-13T08:34:01;1.38;;;0.98;;
8177;SDS011;4130;48.740;9.132;2023-07-13T08:36:28;1.50;;;1.10;;
8177;SDS011;4130;48.740;9.132;2023-07-13T08:38:55;1.38;;;0.90;;
8177;SDS011;4130;48.740;9.132;2023-07-13T08:41:22;1.42;;;0.90;;
8177;SDS011;4130;48.740;9.132;2023-07-13T08:43:50;2.22;;;1.02;;
8177;SDS011;4130;48.740;9.132;2023-07-13T08:46:20;1.15;;;0.90;;
8177;SDS011;4130;48.740;9.132;2023-07-13T08:48:53;0.80;;;0.70;;
8177;SDS011;4130;48.740;9.132;2023-07-13T08:51:25;0.73;;;0.73;;
8177;SDS011;4130;48.740;9.132;2023-07-13T08:53:58;1.85;;;0.90;;
8177;SDS011;4130;48.740;9.132;2023-07-13T08:56:28;1.80;;;0.90;;
8177;SDS011;4130;48.740;9.132;2023-07-13T08:58:56;2.92;;;1.15;;
8177;SDS011;4130;48.740;9.132;2023-07-13T09:01:28;1.33;;;0.85;;
8177;SDS011;4130;48.740;9.132;2023-07-13T09:04:02;1.15;;;0.73;;
8177;SDS011;4130;48.740;9.132;2023-07-13T09:06:42;3.22;;;0.95;;
8177;SDS011;4130;48.740;9.132;2023-07-13T09:09:17;2.63;;;1.00;;
8177;SDS011;4130;48.740;9.132;2023-07-13T09:11:55;1.30;;;1.20;;
8177;SDS011;4130;48.740;9.132;2023-07-13T09:14:30;0.93;;;0.80;;
8177;SDS011;4130;48.740;9.132;2023-07-13T09:17:03;1.15;;;0.98;;
8177;SDS011;4130;48.740;9.132;2023-07-13T09:19:35;2.03;;;1.10;;
8177;SDS011;4130;48.740;9.132;2023-07-13T09:22:02;1.70;;;1.00;;
8177;SDS011;4130;48.740;9.132;2023-07-13T09:24:36;1.08;;;0.82;;
8177;SDS011;4130;48.740;9.132;2023-07-13T09:27:09;1.25;;;0.82;;
8177;SDS011;4130;48.740;9.132;2023-07-13T09:29:42;1.27;;;0.80;;
8177;SDS011;4130;48.740;9.132;2023-07-13T09:32:16;2.22;;;0.90;;
8177;SDS011;4130;48.740;9.132;2023-07-13T09:34:51;1.38;;;0.90;;
8177;SDS011;4130;48.740;9.132;2023-07-13T09:37:19;1.25;;;1.00;;
8177;SDS011;4130;48.740;9.132;2023-07-13T09:39:49;0.70;;;0.70;;
8177;SDS011;4130;48.740;9.132;2023-07-13T09:42:17;1.23;;;0.95;;
8177;SDS011;4130;48.740;9.132;2023-07-13T09:44:51;0.70;;;0.70;;
8177;SDS011;4130;48.740;9.132;2023-07-13T09:47:21;1.10;;;1.00;;
8177;SDS011;4130;48.740;9.132;2023-07-13T09:49:54;1.17;;;0.90;;
8177;SDS011;4130;48.740;9.132;2023-07-13T09:52:23;2.20;;;1.35;;
8177;SDS011;4130;48.740;9.132;2023-07-13T09:54:52;1.10;;;0.77;;
8177;SDS011;4130;48.740;9.132;2023-07-13T09:57:24;1.95;;;0.90;;
8177;SDS011;4130;48.740;9.132;2023-07-13T09:59:52;1.10;;;0.98;;
8177;SDS011;4130;48.740;9.132;2023-07-13T10:02:28;1.52;;;0.80;;
8177;SDS011;4130;48.740;9.132;2023-07-13T10:05:00;1.00;;;0.88;;
8177;SDS011;4130;48.740;9.132;2023-07-13T10:07:29;1.67;;;0.90;;
8177;SDS011;4130;48.740;9.132;2023-07-13T10:09:57;1.48;;;0.90;;
8177;SDS011;4130;48.740;9.132;2023-07-13T10:12:26;1.05;;;0.93;;
8177;SDS011;4130;48.740;9.132;2023-07-13T10:14:54;1.92;;;1.00;;
8177;SDS011;4130;48.740;9.132;2023-07-13T10:17:25;0.77;;;0.70;;
8177;SDS011;4130;48.740;9.132;2023-07-13T10:19:55;0.95;;;0.77;;
8177;SDS011;4130;48.740;9.132;2023-07-13T10:22:31;1.05;;;0.80;;
8177;SDS011;4130;48.740;9.132;2023-07-13T10:25:11;0.70;;;0.70;;
8177;SDS011;4130;48.740;9.132;2023-07-13T10:27:42;1.00;;;0.63;;
8177;SDS011;4130;48.740;9.132;2023-07-13T10:30:12;2.83;;;1.00;;
8177;SDS011;4130;48.740;9.132;2023-07-13T10:32:43;1.17;;;0.90;;
8177;SDS011;4130;48.740;9.132;2023-07-13T10:35:12;0.95;;;0.80;;
8177;SDS011;4130;48.740;9.132;2023-07-13T10:37:43;2.85;;;0.70;;
8177;SDS011;4130;48.740;9.132;2023-07-13T10:40:16;1.10;;;1.00;;
8177;SDS011;4130;48.740;9.132;2023-07-13T10:42:47;1.27;;;0.80;;
8177;SDS011;4130;48.740;9.132;2023-07-13T10:45:18;0.95;;;0.68;;
8177;SDS011;4130;48.740;9.132;2023-07-13T10:47:47;1.25;;;0.90;;
8177;SDS011;4130;48.740;9.132;2023-07-13T10:50:17;2.95;;;1.10;;
8177;SDS011;4130;48.740;9.132;2023-07-13T10:52:46;1.10;;;0.90;;
8177;SDS011;4130;48.740;9.132;2023-07-13T10:55:30;0.90;;;0.90;;
8177;SDS011;4130;48.740;9.132;2023-07-13T10:57:59;0.70;;;0.68;;
8177;SDS011;4130;48.740;9.132;2023-07-13T11:00:30;0.68;;;0.68;;
8177;SDS011;4130;48.740;9.132;2023-07-13T11:02:59;1.23;;;1.10;;
8177;SDS011;4130;48.740;9.132;2023-07-13T11:05:31;0.70;;;0.70;;
8177;SDS011;4130;48.740;9.132;2023-07-13T11:08:03;1.25;;;0.93;;
8177;SDS011;4130;48.740;9.132;2023-07-13T11:10:52;1.95;;;0.88;;
8177;SDS011;4130;48.740;9.132;2023-07-13T11:16:11;0.93;;;0.82;;
8177;SDS011;4130;48.740;9.132;2023-07-13T11:18:40;0.70;;;0.68;;
8177;SDS011;4130;48.740;9.132;2023-07-13T11:21:15;1.08;;;0.98;;
8177;SDS011;4130;48.740;9.132;2023-07-13T11:23:43;1.58;;;1.10;;
8177;SDS011;4130;48.740;9.132;2023-07-13T11:29:08;1.45;;;0.80;;
8177;SDS011;4130;48.740;9.132;2023-07-13T11:31:50;1.10;;;0.98;;
8177;SDS011;4130;48.740;9.132;2023-07-13T11:34:21;3.97;;;0.95;;
8177;SDS011;4130;48.740;9.132;2023-07-13T11:36:54;2.70;;;0.82;;
8177;SDS011;4130;48.740;9.132;2023-07-13T11:39:24;2.50;;;0.82;;
8177;SDS011;4130;48.740;9.132;2023-07-13T11:41:57;2.40;;;1.20;;
8177;SDS011;4130;48.740;9.132;2023-07-13T11:44:28;0.63;;;0.63;;
8177;SDS011;4130;48.740;9.132;2023-07-13T11:46:57;1.35;;;0.90;;
8177;SDS011;4130;48.740;9.132;2023-07-13T11:49:28;1.38;;;0.90;;
8177;SDS011;4130;48.740;9.132;2023-07-13T11:51:58;1.75;;;1.00;;
8177;SDS011;4130;48.740;9.132;2023-07-13T11:54:28;1.75;;;0.80;;
8177;SDS011;4130;48.740;9.132;2023-07-13T11:56:58;0.90;;;0.90;;
8177;SDS011;4130;48.740;9.132;2023-07-13T11:59:27;3.10;;;1.00;;
8177;SDS011;4130;48.740;9.132;2023-07-13T12:01:56;0.93;;;0.80;;
8177;SDS011;4130;48.740;9.132;2023-07-13T12:04:24;1.40;;;1.00;;
8177;SDS011;4130;48.740;9.132;2023-07-13T12:06:55;0.80;;;0.80;;
8177;SDS011;4130;48.740;9.132;2023-07-13T12:09:29;0.77;;;0.73;;
8177;SDS011;4130;48.740;9.132;2023-07-13T12:11:56;0.77;;;0.77;;
8177;SDS011;4130;48.740;9.132;2023-07-13T12:14:23;0.80;;;0.77;;
8177;SDS011;4130;48.740;9.132;2023-07-13T12:16:51;0.95;;;0.93;;
8177;SDS011;4130;48.740;9.132;2023-07-13T12:19:20;0.70;;;0.70;;
8177;SDS011;4130;48.740;9.132;2023-07-13T12:21:48;2.47;;;0.90;;
8177;SDS011;4130;48.740;9.132;2023-07-13T12:24:18;1.98;;;0.80;;
8177;SDS011;4130;48.740;9.132;2023-07-13T12:26:50;1.20;;;0.80;;
8177;SDS011;4130;48.740;9.132;2023-07-13T12:29:18;2.13;;;0.88;;
8177;SDS011;4130;48.740;9.132;2023-07-13T12:31:45;2.92;;;1.30;;
8177;SDS011;4130;48.740;9.132;2023-07-13T12:34:14;0.95;;;0.80;;
8177;SDS011;4130;48.740;9.132;2023-07-13T12:36:45;5.78;;;1.38;;
8177;SDS011;4130;48.740;9.132;2023-07-13T12:39:15;11.88;;;1.60;;
8177;SDS011;4130;48.740;9.132;2023-07-13T12:41:46;1.80;;;0.90;;
8177;SDS011;4130;48.740;9.132;2023-07-13T12:44:14;1.75;;;1.13;;
8177;SDS011;4130;48.740;9.132;2023-07-13T12:46:53;2.42;;;0.90;;
8177;SDS011;4130;48.740;9.132;2023-07-13T12:49:23;30.48;;;6.85;;
8177;SDS011;4130;48.740;9.132;2023-07-13T12:51:55;3.55;;;1.30;;
8177;SDS011;4130;48.740;9.132;2023-07-13T12:54:25;2.15;;;0.85;;
8177;SDS011;4130;48.740;9.132;2023-07-13T12:56:53;2.75;;;0.95;;
8177;SDS011;4130;48.740;9.132;2023-07-13T12:59:22;4.35;;;1.13;;
8177;SDS011;4130;48.740;9.132;2023-07-13T13:01:53;1.13;;;0.90;;
8177;SDS011;4130;48.740;9.132;2023-07-13T13:04:20;1.23;;;1.10;;
8177;SDS011;4130;48.740;9.132;2023-07-13T13:06:47;1.00;;;0.93;;
8177;SDS011;4130;48.740;9.132;2023-07-13T13:09:15;1.20;;;1.00;;
8177;SDS011;4130;48.740;9.132;2023-07-13T13:11:44;2.90;;;1.10;;
8177;SDS011;4130;48.740;9.132;2023-07-13T13:14:11;0.98;;;0.98;;
8177;SDS011;4130;48.740;9.132;2023-07-13T13:16:43;0.90;;;0.90;;
8177;SDS011;4130;48.740;9.132;2023-07-13T13:19:14;2.25;;;1.42;;
8177;SDS011;4130;48.740;9.132;2023-07-13T13:21:43;1.65;;;1.25;;
8177;SDS011;4130;48.740;9.132;2023-07-13T13:24:11;1.33;;;0.88;;
8177;SDS011;4130;48.740;9.132;2023-07-13T13:26:39;0.95;;;0.90;;
8177;SDS011;4130;48.740;9.132;2023-07-13T13:29:10;5.20;;;1.75;;
8177;SDS011;4130;48.740;9.132;2023-07-13T13:31:40;2.17;;;1.20;;
8177;SDS011;4130;48.740;9.132;2023-07-13T13:34:08;2.40;;;1.05;;
8177;SDS011;4130;48.740;9.132;2023-07-13T13:36:36;1.10;;;1.05;;
8177;SDS011;4130;48.740;9.132;2023-07-13T13:39:05;2.03;;;1.10;;
8177;SDS011;4130;48.740;9.132;2023-07-13T13:41:48;1.10;;;1.00;;
8177;SDS011;4130;48.740;9.132;2023-07-13T13:44:17;1.70;;;1.13;;
8177;SDS011;4130;48.740;9.132;2023-07-13T13:46:45;1.17;;;0.90;;
8177;SDS011;4130;48.740;9.132;2023-07-13T13:49:14;1.52;;;0.90;;
8177;SDS011;4130;48.740;9.132;2023-07-13T13:51:42;1.33;;;1.17;;
8177;SDS011;4130;48.740;9.132;2023-07-13T13:54:10;0.90;;;0.90;;
8177;SDS011;4130;48.740;9.132;2023-07-13T13:56:38;1.05;;;0.98;;
8177;SDS011;4130;48.740;9.132;2023-07-13T13:59:06;4.05;;;1.10;;
8177;SDS011;4130;48.740;9.132;2023-07-13T14:01:35;0.85;;;0.85;;
8177;SDS011;4130;48.740;9.132;2023-07-13T14:04:02;2.45;;;1.17;;
8177;SDS011;4130;48.740;9.132;2023-07-13T14:06:30;1.75;;;0.90;;
8177;SDS011;4130;48.740;9.132;2023-07-13T14:08:59;0.82;;;0.70;;
8177;SDS011;4130;48.740;9.132;2023-07-13T14:11:27;1.27;;;0.93;;
8177;SDS011;4130;48.740;9.132;2023-07-13T14:13:55;1.65;;;1.15;;
8177;SDS011;4130;48.740;9.132;2023-07-13T14:16:25;1.70;;;0.90;;
8177;SDS011;4130;48.740;9.132;2023-07-13T14:18:56;0.77;;;0.77;;
8177;SDS011;4130;48.740;9.132;2023-07-13T14:21:25;1.17;;;1.00;;
8177;SDS011;4130;48.740;9.132;2023-07-13T14:23:53;1.63;;;1.00;;
8177;SDS011;4130;48.740;9.132;2023-07-13T14:26:20;0.98;;;0.98;;
8177;SDS011;4130;48.740;9.132;2023-07-13T14:28:49;2.67;;;1.10;;
8177;SDS011;4130;48.740;9.132;2023-07-13T14:31:18;0.88;;;0.85;;
8177;SDS011;4130;48.740;9.132;2023-07-13T14:33:45;3.55;;;1.05;;
8177;SDS011;4130;48.740;9.132;2023-07-13T14:36:18;0.82;;;0.82;;
8177;SDS011;4130;48.740;9.132;2023-07-13T14:38:51;0.90;;;0.80;;
8177;SDS011;4130;48.740;9.132;2023-07-13T14:41:18;0.90;;;0.90;;
8177;SDS011;4130;48.740;9.132;2023-07-13T14:43:45;2.25;;;1.23;;
8177;SDS011;4130;48.740;9.132;2023-07-13T14:46:16;1.80;;;1.08;;
8177;SDS011;4130;48.740;9.132;2023-07-13T14:48:50;1.75;;;0.98;;
8177;SDS011;4130;48.740;9.132;2023-07-13T14:51:18;2.10;;;1.20;;
8177;SDS011;4130;48.740;9.132;2023-07-13T14:53:45;0.93;;;0.93;;
8177;SDS011;4130;48.740;9.132;2023-07-13T14:56:12;3.40;;;1.23;;
8177;SDS011;4130;48.740;9.132;2023-07-13T14:58:39;0.95;;;0.80;;
8177;SDS011;4130;48.740;9.132;2023-07-13T15:01:08;3.90;;;1.27;;
8177;SDS011;4130;48.740;9.132;2023-07-13T15:03:41;3.50;;;1.00;;
8177;SDS011;4130;48.740;9.132;2023-07-13T15:06:10;1.20;;;1.10;;
8177;SDS011;4130;48.740;9.132;2023-07-13T15:08:40;1.52;;;0.90;;
8177;SDS011;4130;48.740;9.132;2023-07-13T15:11:07;1.83;;;1.00;;
8177;SDS011;4130;48.740;9.132;2023-07-13T15:13:36;0.90;;;0.88;;
8177;SDS011;4130;48.740;9.132;2023-07-13T15:16:04;1.60;;;0.90;;
8177;SDS011;4130;48.740;9.132;2023-07-13T15:18:39;0.88;;;0.88;;
8177;SDS011;4130;48.740;9.132;2023-07-13T15:21:08;0.90;;;0.90;;
8177;SDS011;4130;48.740;9.132;2023-07-13T15:23:40;1.60;;;1.08;;
8177;SDS011;4130;48.740;9.132;2023-07-13T15:26:08;0.82;;;0.82;;
8177;SDS011;4130;48.740;9.132;2023-07-13T15:28:38;1.75;;;1.00;;
8177;SDS011;4130;48.740;9.132;2023-07-13T15:31:05;1.20;;;1.00;;